Gratiot, Ohio
Current Conditions -  °F | °C
As of 8:54 PM on Tuesday 25 Nov 2014 (Local Time) from KVTA Reporting Station
Clear Clear  
Wind Chill: -2°   Ceiling: Unl
Heat Index:   Visibility: 10mi
Dew Point: -3°   Wind: 6mph
Humidity: 78%   Direction: 340°NNW
Pressure: 30.17"   Gusts: NA
Location:  39.95°N, 82.22°W
Report Text: KVTA 260154Z AUTO 34005KT 10SM CLR 01/M03 A3017 RMK AO2 SLP223 T00061028
Loading
Personal Weather Stations






























Interactive Weather Map New forecast layout! Learn more

10-Day Weather Forecast

Advertisements
Track Severe Weather on mobile